createdAt,value
2017-10-06T00:00:59.289Z,0
2017-10-06T00:02:07.994Z,0
2017-10-06T00:03:16.699Z,0
2017-10-06T00:04:26.362Z,0
2017-10-06T00:05:35.707Z,0
2017-10-06T00:06:44.415Z,0
2017-10-06T00:07:53.442Z,0
2017-10-06T00:09:02.789Z,0
2017-10-06T00:10:12.130Z,0
2017-10-06T00:11:21.151Z,0
2017-10-06T00:12:30.497Z,0
2017-10-06T00:13:39.203Z,0
2017-10-06T00:14:48.867Z,0
2017-10-06T00:15:58.215Z,0
2017-10-06T00:17:07.564Z,0
2017-10-06T00:18:17.228Z,0
2017-10-06T00:19:26.255Z,0
2017-10-06T00:20:35.602Z,0
2017-10-06T00:21:44.311Z,0
2017-10-06T00:22:53.336Z,0
2017-10-06T00:24:02.685Z,0
2017-10-06T00:25:11.394Z,0
2017-10-06T00:26:20.740Z,0
2017-10-06T00:27:29.449Z,0
2017-10-06T00:28:38.483Z,0
2017-10-06T00:29:47.516Z,0
2017-10-06T00:30:56.867Z,0
2017-10-06T00:32:06.214Z,0
2017-10-06T00:33:15.239Z,0
2017-10-06T00:34:23.949Z,0
2017-10-06T00:35:33.939Z,0
2017-10-06T00:36:42.961Z,0
2017-10-06T00:37:52.315Z,0
2017-10-06T00:39:01.026Z,0
2017-10-06T00:40:10.050Z,0
2017-10-06T00:41:19.394Z,0
2017-10-06T00:42:28.740Z,0
2017-10-06T00:43:38.089Z,0
2017-10-06T00:44:47.432Z,0
2017-10-06T00:45:56.777Z,0
2017-10-06T00:47:05.482Z,0
2017-10-06T00:48:14.506Z,0
2017-10-06T00:49:23.534Z,0
2017-10-06T00:50:32.880Z,0
2017-10-06T00:51:42.221Z,0
2017-10-06T00:52:51.247Z,0
2017-10-06T00:54:00.275Z,0
2017-10-06T00:55:08.981Z,0
2017-10-06T00:56:17.690Z,0
2017-10-06T00:57:27.036Z,0
2017-10-06T00:58:37.026Z,0
2017-10-06T00:59:46.058Z,0
2017-10-06T01:00:55.083Z,0
2017-10-06T01:02:03.790Z,0
2017-10-06T01:03:12.497Z,0
2017-10-06T01:04:21.849Z,0
2017-10-06T01:05:31.194Z,0
2017-10-06T01:06:39.897Z,0
2017-10-06T01:07:48.925Z,0
2017-10-06T01:08:57.950Z,0
2017-10-06T01:10:06.975Z,0
2017-10-06T01:11:16.002Z,0
2017-10-06T01:12:25.033Z,0
2017-10-06T01:13:34.387Z,0
2017-10-06T01:14:44.056Z,0
2017-10-06T01:15:53.408Z,0
2017-10-06T01:17:02.441Z,0
2017-10-06T01:18:12.102Z,0
2017-10-06T01:19:21.125Z,0
2017-10-06T01:20:30.148Z,0
2017-10-06T01:21:39.496Z,0
2017-10-06T01:22:48.534Z,0
2017-10-06T01:23:57.557Z,0
2017-10-06T01:25:06.906Z,0
2017-10-06T01:26:15.931Z,0
2017-10-06T01:27:24.636Z,0
2017-10-06T01:28:33.345Z,0
2017-10-06T01:29:42.052Z,0
2017-10-06T01:30:51.078Z,0
2017-10-06T01:32:00.110Z,0
2017-10-06T01:33:09.454Z,0
2017-10-06T01:34:18.160Z,0
2017-10-06T01:35:27.189Z,0
2017-10-06T01:36:36.531Z,0
2017-10-06T01:37:45.878Z,0
2017-10-06T01:38:55.549Z,0
2017-10-06T01:40:04.583Z,0
2017-10-06T01:41:13.610Z,0
2017-10-06T01:42:22.955Z,0
2017-10-06T01:43:32.298Z,0
2017-10-06T01:44:41.326Z,0
2017-10-06T01:45:50.350Z,0
2017-10-06T01:46:59.379Z,0
2017-10-06T01:48:08.725Z,0
2017-10-06T01:49:18.394Z,0
2017-10-06T01:50:27.416Z,0
2017-10-06T01:51:36.124Z,0
2017-10-06T01:52:45.153Z,0
2017-10-06T01:53:54.172Z,0
2017-10-06T01:55:02.878Z,0
2017-10-06T01:56:11.900Z,0
2017-10-06T01:57:21.278Z,0
2017-10-06T01:58:30.306Z,0
2017-10-06T01:59:39.013Z,0
2017-10-06T02:00:48.033Z,0
2017-10-06T02:01:57.379Z,0
2017-10-06T02:03:06.403Z,0
2017-10-06T02:04:15.109Z,0
2017-10-06T02:05:24.135Z,0
2017-10-06T02:06:33.476Z,0
2017-10-06T02:07:42.511Z,0
2017-10-06T02:08:51.216Z,0
2017-10-06T02:10:00.242Z,0
2017-10-06T02:11:08.945Z,0
2017-10-06T02:12:17.650Z,0
2017-10-06T02:13:26.359Z,0
2017-10-06T02:14:35.716Z,0
2017-10-06T02:15:45.385Z,0
2017-10-06T02:16:54.412Z,0
2017-10-06T02:18:03.437Z,0
2017-10-06T02:19:12.784Z,0
2017-10-06T02:20:21.810Z,0
2017-10-06T02:21:30.517Z,0
2017-10-06T02:22:39.860Z,0
2017-10-06T02:23:48.885Z,0
2017-10-06T02:24:58.550Z,0
2017-10-06T02:26:07.255Z,0
2017-10-06T02:27:16.279Z,0
2017-10-06T02:28:25.314Z,0
2017-10-06T02:29:34.340Z,0
2017-10-06T02:30:43.050Z,0
2017-10-06T02:31:52.733Z,0
2017-10-06T02:33:02.080Z,0
2017-10-06T02:34:10.788Z,0
2017-10-06T02:35:20.139Z,0
2017-10-06T02:36:29.809Z,0
2017-10-06T02:37:39.483Z,0
2017-10-06T02:38:48.508Z,0
2017-10-06T02:39:57.530Z,0
2017-10-06T02:41:06.557Z,0
2017-10-06T02:42:15.582Z,0
2017-10-06T02:43:24.606Z,0
2017-10-06T02:44:33.636Z,0
2017-10-06T02:45:42.660Z,0
2017-10-06T02:46:51.684Z,0
2017-10-06T02:48:00.708Z,0
2017-10-06T02:49:09.414Z,0
2017-10-06T02:50:18.764Z,0
2017-10-06T02:51:28.112Z,0
2017-10-06T02:52:37.782Z,0
2017-10-06T02:53:46.806Z,0
2017-10-06T02:54:56.161Z,0
2017-10-06T02:56:05.834Z,0
2017-10-06T02:57:14.860Z,0
2017-10-06T02:58:24.209Z,0
2017-10-06T02:59:33.873Z,0
2017-10-06T03:00:42.900Z,0
2017-10-06T03:01:51.922Z,0
2017-10-06T03:03:01.268Z,0
2017-10-06T03:04:10.294Z,0
2017-10-06T03:05:19.963Z,0
2017-10-06T03:06:28.991Z,0
2017-10-06T03:07:38.020Z,0
2017-10-06T03:08:47.049Z,0
2017-10-06T03:09:56.072Z,0
2017-10-06T03:11:05.098Z,0
2017-10-06T03:12:14.119Z,0
2017-10-06T03:13:22.825Z,0
2017-10-06T03:14:31.851Z,0
2017-10-06T03:15:41.198Z,0
2017-10-06T03:16:50.543Z,0
2017-10-06T03:17:59.896Z,0
2017-10-06T03:19:09.241Z,0
2017-10-06T03:20:17.942Z,0
2017-10-06T03:21:27.285Z,0
2017-10-06T03:22:35.993Z,0
2017-10-06T03:23:45.018Z,0
2017-10-06T03:24:54.364Z,0
2017-10-06T03:26:03.067Z,0
2017-10-06T03:27:11.772Z,0
2017-10-06T03:28:21.126Z,0
2017-10-06T03:29:30.150Z,0
2017-10-06T03:30:39.179Z,0
2017-10-06T03:31:48.216Z,0
2017-10-06T03:32:56.920Z,0
2017-10-06T03:34:06.589Z,0
2017-10-06T03:35:15.934Z,0
2017-10-06T03:36:24.640Z,0
2017-10-06T03:37:33.661Z,0
2017-10-06T03:38:43.007Z,0
2017-10-06T03:39:51.712Z,0
2017-10-06T03:41:00.739Z,0
2017-10-06T03:42:09.443Z,0
2017-10-06T03:43:18.469Z,0
2017-10-06T03:44:27.173Z,0
2017-10-06T03:45:35.882Z,0
2017-10-06T03:46:44.907Z,0
2017-10-06T03:47:54.254Z,0
2017-10-06T03:49:03.597Z,0
2017-10-06T03:50:12.944Z,0
2017-10-06T03:51:21.972Z,0
2017-10-06T03:52:30.681Z,0
2017-10-06T03:53:39.709Z,0
2017-10-06T03:54:49.067Z,0
2017-10-06T03:55:58.114Z,0
2017-10-06T03:57:07.452Z,0
2017-10-06T03:58:16.479Z,0
2017-10-06T03:59:25.821Z,0
2017-10-06T04:00:34.861Z,0
2017-10-06T04:01:44.526Z,0
2017-10-06T04:02:53.552Z,0
2017-10-06T04:04:02.260Z,0
2017-10-06T04:05:11.284Z,0
2017-10-06T04:06:19.989Z,0
2017-10-06T04:07:29.662Z,0
2017-10-06T04:08:38.364Z,0
2017-10-06T04:09:47.392Z,0
2017-10-06T04:10:56.417Z,0
2017-10-06T04:12:05.442Z,0
2017-10-06T04:13:14.466Z,0
2017-10-06T04:14:23.170Z,0
2017-10-06T04:15:32.198Z,0
2017-10-06T04:16:41.547Z,0
2017-10-06T04:17:50.576Z,0
2017-10-06T04:18:59.930Z,0
2017-10-06T04:20:09.276Z,0
2017-10-06T04:21:18.626Z,0
2017-10-06T04:22:28.298Z,0
2017-10-06T04:23:37.643Z,0
2017-10-06T04:24:47.304Z,0
2017-10-06T04:25:56.332Z,0
2017-10-06T04:27:05.358Z,0
2017-10-06T04:28:14.382Z,0
2017-10-06T04:29:24.054Z,0
2017-10-06T04:30:34.047Z,0
2017-10-06T04:31:43.393Z,0
2017-10-06T04:32:52.098Z,0
2017-10-06T04:34:01.765Z,0
2017-10-06T04:35:11.755Z,0
2017-10-06T04:36:21.102Z,0
2017-10-06T04:37:29.810Z,0
2017-10-06T04:38:38.837Z,0
2017-10-06T04:39:48.187Z,0
2017-10-06T04:40:57.529Z,0
2017-10-06T04:42:06.555Z,0
2017-10-06T04:43:15.901Z,0
2017-10-06T04:44:24.931Z,0
2017-10-06T04:45:33.958Z,0
2017-10-06T04:46:43.303Z,0
2017-10-06T04:47:52.330Z,0
2017-10-06T04:49:01.357Z,0
2017-10-06T04:50:10.705Z,0
2017-10-06T04:51:19.415Z,0
2017-10-06T04:52:28.125Z,0
2017-10-06T04:53:36.828Z,0
2017-10-06T04:54:45.531Z,0
2017-10-06T04:55:54.563Z,0
2017-10-06T04:57:03.586Z,0
2017-10-06T04:58:12.292Z,0
2017-10-06T04:59:21.319Z,0
2017-10-06T05:00:30.024Z,0
2017-10-06T05:01:39.054Z,0
2017-10-06T05:02:48.406Z,0
2017-10-06T05:03:57.110Z,0
2017-10-06T05:05:06.141Z,0
2017-10-06T05:06:15.164Z,0
2017-10-06T05:07:24.188Z,0
2017-10-06T05:08:33.214Z,0
2017-10-06T05:09:41.919Z,0
2017-10-06T05:10:51.264Z,0
2017-10-06T05:12:00.295Z,0
2017-10-06T05:13:09.000Z,0
2017-10-06T05:14:18.022Z,0
2017-10-06T05:15:27.695Z,0
2017-10-06T05:16:37.041Z,0
2017-10-06T05:17:46.398Z,0
2017-10-06T05:18:55.425Z,0
2017-10-06T05:20:04.450Z,0
2017-10-06T05:21:13.799Z,0
2017-10-06T05:22:22.505Z,0
2017-10-06T05:23:31.210Z,0
2017-10-06T05:24:39.917Z,0
2017-10-06T05:25:49.263Z,0
2017-10-06T05:26:57.967Z,0
2017-10-06T05:28:06.671Z,0
2017-10-06T05:29:16.337Z,0
2017-10-06T05:30:26.005Z,0
2017-10-06T05:31:35.350Z,0
2017-10-06T05:32:44.373Z,0
2017-10-06T05:33:53.395Z,0
2017-10-06T05:35:02.772Z,0
2017-10-06T05:36:12.088Z,0
2017-10-06T05:37:21.118Z,0
2017-10-06T05:38:30.467Z,0
2017-10-06T05:39:40.132Z,0
2017-10-06T05:40:49.811Z,0
2017-10-06T05:41:58.514Z,0
2017-10-06T05:43:07.540Z,0
2017-10-06T05:44:16.248Z,0
2017-10-06T05:45:24.957Z,0
2017-10-06T05:46:33.984Z,0
2017-10-06T05:47:43.652Z,0
2017-10-06T05:48:52.678Z,0
2017-10-06T05:50:01.701Z,0
2017-10-06T05:51:11.374Z,0
2017-10-06T05:52:20.402Z,0
2017-10-06T05:53:29.424Z,0
2017-10-06T05:54:38.772Z,0
2017-10-06T05:55:47.478Z,0
2017-10-06T05:56:57.144Z,0
2017-10-06T05:58:06.488Z,0
2017-10-06T05:59:15.831Z,0
2017-10-06T06:00:26.145Z,0
2017-10-06T06:01:35.490Z,0
2017-10-06T06:02:44.517Z,0
2017-10-06T06:03:53.859Z,0
2017-10-06T06:05:03.856Z,0
2017-10-06T06:06:12.876Z,0
2017-10-06T06:07:21.901Z,0
2017-10-06T06:08:30.925Z,0
2017-10-06T06:09:40.593Z,0
2017-10-06T06:10:49.943Z,0
2017-10-06T06:11:58.970Z,0
2017-10-06T06:13:07.996Z,0
2017-10-06T06:14:17.658Z,0
2017-10-06T06:15:26.368Z,0
2017-10-06T06:16:35.393Z,0
2017-10-06T06:17:44.101Z,0
2017-10-06T06:18:52.803Z,0
2017-10-06T06:20:01.830Z,0
2017-10-06T06:21:10.538Z,0
2017-10-06T06:22:19.572Z,0
2017-10-06T06:23:28.917Z,0
2017-10-06T06:24:37.948Z,0
2017-10-06T06:25:46.651Z,0
2017-10-06T06:26:55.675Z,5
2017-10-06T06:28:04.706Z,5
2017-10-06T06:29:13.735Z,0
2017-10-06T06:30:23.082Z,0
2017-10-06T06:31:32.106Z,0
2017-10-06T06:32:40.813Z,0
2017-10-06T06:33:49.836Z,5
2017-10-06T06:34:58.870Z,5
2017-10-06T06:36:07.578Z,5
2017-10-06T06:37:16.283Z,5
2017-10-06T06:38:25.629Z,5
2017-10-06T06:39:34.975Z,0
2017-10-06T06:40:44.010Z,5
2017-10-06T06:41:53.036Z,5
2017-10-06T06:43:01.743Z,5
2017-10-06T06:44:10.452Z,5
2017-10-06T06:45:19.478Z,0
2017-10-06T06:46:28.822Z,0
2017-10-06T06:47:37.855Z,0
2017-10-06T06:48:47.198Z,5
2017-10-06T06:49:56.223Z,5
2017-10-06T06:51:05.252Z,5
2017-10-06T06:52:14.280Z,15
2017-10-06T06:53:23.630Z,20
2017-10-06T06:54:32.661Z,20
2017-10-06T06:55:42.007Z,15
2017-10-06T06:56:51.041Z,5
2017-10-06T06:58:00.064Z,5
2017-10-06T06:59:09.413Z,5
2017-10-06T07:00:18.440Z,10
2017-10-06T07:01:27.809Z,25
2017-10-06T07:02:36.837Z,10
2017-10-06T07:03:45.866Z,5
2017-10-06T07:04:54.578Z,5
2017-10-06T07:06:03.920Z,5
2017-10-06T07:07:13.264Z,5
2017-10-06T07:08:22.937Z,5
2017-10-06T07:09:31.965Z,5
2017-10-06T07:10:40.996Z,0
2017-10-06T07:11:50.019Z,0
2017-10-06T07:12:58.734Z,0
2017-10-06T07:14:07.757Z,5
2017-10-06T07:15:16.785Z,5
2017-10-06T07:16:26.130Z,5
2017-10-06T07:17:35.157Z,5
2017-10-06T07:18:44.182Z,10
2017-10-06T07:19:53.207Z,10
2017-10-06T07:21:02.232Z,5
2017-10-06T07:22:11.258Z,5
2017-10-06T07:23:20.286Z,10
2017-10-06T07:24:28.995Z,10
2017-10-06T07:25:38.022Z,5
2017-10-06T07:26:47.047Z,5
2017-10-06T07:27:55.756Z,5
2017-10-06T07:29:04.781Z,10
2017-10-06T07:30:14.132Z,10
2017-10-06T07:31:23.479Z,30
2017-10-06T07:32:32.823Z,15
2017-10-06T07:33:41.851Z,5
2017-10-06T07:34:51.201Z,5
2017-10-06T07:35:59.911Z,10
2017-10-06T07:37:08.618Z,10
2017-10-06T07:38:17.645Z,5
2017-10-06T07:39:26.674Z,5
2017-10-06T07:40:36.025Z,10
2017-10-06T07:41:45.376Z,25
2017-10-06T07:42:55.045Z,35
2017-10-06T07:44:04.078Z,20
2017-10-06T07:45:12.788Z,25
2017-10-06T07:46:22.452Z,25
2017-10-06T07:47:31.801Z,50
2017-10-06T07:48:40.510Z,35
2017-10-06T07:49:49.857Z,15
2017-10-06T07:50:59.527Z,15
2017-10-06T07:52:08.553Z,10
2017-10-06T07:53:17.579Z,5
2017-10-06T07:54:26.283Z,15
2017-10-06T07:55:35.309Z,15
2017-10-06T07:56:44.658Z,30
2017-10-06T07:57:53.683Z,15
2017-10-06T07:59:03.035Z,10
2017-10-06T08:00:12.388Z,10
2017-10-06T08:01:21.736Z,10
2017-10-06T08:02:30.761Z,10
2017-10-06T08:03:39.787Z,10
2017-10-06T08:04:48.817Z,15
2017-10-06T08:05:57.842Z,15
2017-10-06T08:07:06.551Z,40
2017-10-06T08:08:15.904Z,60
2017-10-06T08:09:25.250Z,30
2017-10-06T08:10:34.591Z,15
2017-10-06T08:11:43.297Z,10
2017-10-06T08:12:52.642Z,10
2017-10-06T08:14:01.674Z,5
2017-10-06T08:15:11.024Z,5
2017-10-06T08:16:20.369Z,10
2017-10-06T08:17:29.716Z,10
2017-10-06T08:18:38.422Z,20
2017-10-06T08:19:47.447Z,10
2017-10-06T08:20:56.797Z,5
2017-10-06T08:22:05.505Z,5
2017-10-06T08:23:14.850Z,5
2017-10-06T08:24:23.880Z,5
2017-10-06T08:25:33.235Z,5
2017-10-06T08:26:42.587Z,5
2017-10-06T08:27:51.931Z,15
2017-10-06T08:29:01.598Z,15
2017-10-06T08:30:10.306Z,5
2017-10-06T08:31:19.652Z,10
2017-10-06T08:32:28.356Z,5
2017-10-06T08:33:37.700Z,20
2017-10-06T08:34:46.728Z,15
2017-10-06T08:35:55.752Z,10
2017-10-06T08:37:04.777Z,5
2017-10-06T08:38:13.805Z,5
2017-10-06T08:39:22.834Z,5
2017-10-06T08:40:32.505Z,5
2017-10-06T08:41:41.529Z,5
2017-10-06T08:42:50.875Z,5
2017-10-06T08:43:59.582Z,10
2017-10-06T08:45:08.613Z,15
2017-10-06T08:46:17.641Z,15
2017-10-06T08:47:26.669Z,10
2017-10-06T08:48:35.696Z,10
2017-10-06T08:49:44.399Z,20
2017-10-06T08:50:54.387Z,15
2017-10-06T08:52:03.094Z,10
2017-10-06T08:53:12.118Z,10
2017-10-06T08:54:20.827Z,5
2017-10-06T08:55:30.177Z,5
2017-10-06T08:56:39.203Z,10
2017-10-06T08:57:48.876Z,10
2017-10-06T08:58:58.224Z,15
2017-10-06T09:00:07.583Z,20
2017-10-06T09:01:17.574Z,15
2017-10-06T09:02:27.270Z,10
2017-10-06T09:03:36.625Z,15
2017-10-06T09:04:45.330Z,15
2017-10-06T09:05:54.675Z,20
2017-10-06T09:07:03.381Z,20
2017-10-06T09:08:12.405Z,15
2017-10-06T09:09:21.754Z,10
2017-10-06T09:10:30.459Z,5
2017-10-06T09:11:39.166Z,10
2017-10-06T09:12:47.871Z,10
2017-10-06T09:13:57.541Z,10
2017-10-06T09:15:06.566Z,10
2017-10-06T09:16:15.917Z,15
2017-10-06T09:17:24.944Z,15
2017-10-06T09:18:34.287Z,25
2017-10-06T09:19:42.992Z,15
2017-10-06T09:20:52.339Z,20
2017-10-06T09:22:02.005Z,30
2017-10-06T09:23:10.707Z,25
2017-10-06T09:24:20.054Z,15
2017-10-06T09:25:28.758Z,15
2017-10-06T09:26:38.105Z,20
2017-10-06T09:27:47.131Z,20
2017-10-06T09:28:56.476Z,10
2017-10-06T09:30:05.828Z,5
2017-10-06T09:31:14.857Z,10
2017-10-06T09:32:23.565Z,5
2017-10-06T09:33:32.912Z,5
2017-10-06T09:34:42.262Z,0
2017-10-06T09:35:51.934Z,0
2017-10-06T09:37:00.960Z,0
2017-10-06T09:38:09.991Z,0
2017-10-06T09:39:19.017Z,5
2017-10-06T09:40:28.366Z,5
2017-10-06T09:41:37.394Z,10
2017-10-06T09:42:46.744Z,10
2017-10-06T09:43:55.823Z,15
2017-10-06T09:45:05.171Z,15
2017-10-06T09:46:14.524Z,20
2017-10-06T09:47:23.551Z,25
2017-10-06T09:48:32.259Z,25
2017-10-06T09:49:41.604Z,20
2017-10-06T09:50:50.953Z,25
2017-10-06T09:52:00.302Z,25
2017-10-06T09:53:09.004Z,25
2017-10-06T09:54:17.712Z,30
2017-10-06T09:55:26.737Z,20
2017-10-06T09:56:36.088Z,25
2017-10-06T09:57:45.433Z,20
2017-10-06T09:58:54.795Z,15
2017-10-06T10:00:03.499Z,15
2017-10-06T10:01:12.203Z,25
2017-10-06T10:02:21.553Z,25
2017-10-06T10:03:30.581Z,25
2017-10-06T10:04:39.922Z,30
2017-10-06T10:05:48.950Z,20
2017-10-06T10:06:58.297Z,25
2017-10-06T10:08:07.326Z,25
2017-10-06T10:09:16.031Z,30
2017-10-06T10:10:24.736Z,35
2017-10-06T10:11:33.762Z,25
2017-10-06T10:12:43.112Z,30
2017-10-06T10:13:52.139Z,60
2017-10-06T10:15:01.163Z,55
2017-10-06T10:16:09.868Z,40
2017-10-06T10:17:19.210Z,35
2017-10-06T10:18:28.238Z,30
2017-10-06T10:19:37.267Z,20
2017-10-06T10:20:45.973Z,15
2017-10-06T10:21:55.002Z,15
2017-10-06T10:23:04.029Z,10
2017-10-06T10:24:12.737Z,10
2017-10-06T10:25:22.083Z,5
2017-10-06T10:26:30.793Z,10
2017-10-06T10:27:39.501Z,15
2017-10-06T10:28:49.171Z,15
2017-10-06T10:29:58.203Z,10
2017-10-06T10:31:07.545Z,15
2017-10-06T10:32:16.893Z,15
2017-10-06T10:33:25.925Z,10
2017-10-06T10:34:34.631Z,10
2017-10-06T10:35:43.334Z,15
2017-10-06T10:36:52.042Z,20
2017-10-06T10:38:00.746Z,20
2017-10-06T10:39:09.450Z,25
2017-10-06T10:40:18.475Z,30
2017-10-06T10:41:27.503Z,30
2017-10-06T10:42:36.534Z,40
2017-10-06T10:43:45.569Z,20
2017-10-06T10:44:54.915Z,25
2017-10-06T10:46:03.621Z,15
2017-10-06T10:47:12.646Z,15
2017-10-06T10:48:21.353Z,15
2017-10-06T10:49:30.378Z,15
2017-10-06T10:50:39.406Z,10
2017-10-06T10:51:49.074Z,10
2017-10-06T10:52:58.102Z,10
2017-10-06T10:54:07.130Z,10
2017-10-06T10:55:16.481Z,5
2017-10-06T10:56:25.189Z,10
2017-10-06T10:57:34.214Z,10
2017-10-06T10:58:42.921Z,10
2017-10-06T10:59:52.274Z,10
2017-10-06T11:01:01.308Z,10
2017-10-06T11:02:10.014Z,10
2017-10-06T11:03:19.039Z,15
2017-10-06T11:04:27.745Z,20
2017-10-06T11:05:37.091Z,30
2017-10-06T11:06:45.796Z,35
2017-10-06T11:07:54.820Z,20
2017-10-06T11:09:03.853Z,20
2017-10-06T11:10:12.878Z,15
2017-10-06T11:11:22.243Z,15
2017-10-06T11:12:30.946Z,10
2017-10-06T11:13:39.650Z,10
2017-10-06T11:14:48.996Z,15
2017-10-06T11:15:57.696Z,20
2017-10-06T11:17:06.721Z,20
2017-10-06T11:18:16.069Z,25
2017-10-06T11:19:25.094Z,30
2017-10-06T11:20:34.121Z,30
2017-10-06T11:21:43.147Z,30
2017-10-06T11:22:52.493Z,95
2017-10-06T11:24:01.844Z,190
2017-10-06T11:25:10.874Z,230
2017-10-06T11:26:20.542Z,605
2017-10-06T11:27:29.571Z,665
2017-10-06T11:28:38.281Z,880
2017-10-06T11:29:47.945Z,920
2017-10-06T11:30:56.658Z,685
2017-10-06T11:32:06.005Z,110
2017-10-06T11:33:15.357Z,160
2017-10-06T11:34:24.709Z,80
2017-10-06T11:35:33.738Z,35
2017-10-06T11:36:42.440Z,45
2017-10-06T11:37:52.116Z,110
2017-10-06T11:39:01.462Z,45
2017-10-06T11:40:10.489Z,35
2017-10-06T11:41:19.514Z,20
2017-10-06T11:42:28.542Z,25
2017-10-06T11:43:37.248Z,30
2017-10-06T11:44:46.596Z,30
2017-10-06T11:45:55.943Z,40
2017-10-06T11:47:04.654Z,40
2017-10-06T11:48:14.002Z,35
2017-10-06T11:49:23.027Z,45
2017-10-06T11:50:32.055Z,35
2017-10-06T11:51:41.081Z,40
2017-10-06T11:52:49.788Z,40
2017-10-06T11:53:58.819Z,55
2017-10-06T11:55:08.170Z,90
2017-10-06T11:56:16.875Z,30
2017-10-06T11:57:25.583Z,20
2017-10-06T11:58:34.609Z,20
2017-10-06T11:59:43.970Z,20
2017-10-06T12:00:53.323Z,15
2017-10-06T12:02:02.028Z,20
2017-10-06T12:03:11.376Z,25
2017-10-06T12:04:20.725Z,115
2017-10-06T12:05:29.750Z,20
2017-10-06T12:06:38.775Z,70
2017-10-06T12:07:47.806Z,140
2017-10-06T12:08:56.832Z,70
2017-10-06T12:10:05.860Z,90
2017-10-06T12:11:14.885Z,90
2017-10-06T12:12:23.595Z,70
2017-10-06T12:13:32.620Z,120
2017-10-06T12:14:41.327Z,130
2017-10-06T12:15:50.041Z,90
2017-10-06T12:16:59.721Z,65
2017-10-06T12:18:08.430Z,115
2017-10-06T12:19:17.140Z,125
2017-10-06T12:20:26.161Z,80
2017-10-06T12:21:35.183Z,85
2017-10-06T12:22:44.215Z,125
2017-10-06T12:23:52.922Z,75
2017-10-06T12:25:01.629Z,85
2017-10-06T12:26:10.661Z,50
2017-10-06T12:27:19.370Z,50
2017-10-06T12:28:28.717Z,55
2017-10-06T12:29:37.427Z,30
2017-10-06T12:30:46.776Z,20
2017-10-06T12:31:55.806Z,25
2017-10-06T12:33:04.834Z,45
2017-10-06T12:34:14.503Z,20
2017-10-06T12:35:23.537Z,20
2017-10-06T12:36:33.209Z,20
2017-10-06T12:37:41.917Z,20
2017-10-06T12:38:51.266Z,10
2017-10-06T12:39:59.975Z,10
2017-10-06T12:41:09.325Z,50
2017-10-06T12:42:19.001Z,85
2017-10-06T12:43:28.349Z,60
2017-10-06T12:44:37.373Z,55
2017-10-06T12:45:46.399Z,30
2017-10-06T12:46:55.753Z,40
2017-10-06T12:48:04.780Z,30
2017-10-06T12:49:13.486Z,25
2017-10-06T12:50:22.833Z,15
2017-10-06T12:51:31.540Z,15
2017-10-06T12:52:40.247Z,25
2017-10-06T12:53:49.276Z,25
2017-10-06T12:54:58.629Z,10
2017-10-06T12:56:08.302Z,5
2017-10-06T12:57:17.334Z,5
2017-10-06T12:58:26.365Z,10
2017-10-06T12:59:35.711Z,15
2017-10-06T13:00:45.057Z,10
2017-10-06T13:01:54.086Z,15
2017-10-06T13:03:02.794Z,20
2017-10-06T13:04:11.497Z,25
2017-10-06T13:05:20.205Z,30
2017-10-06T13:06:28.911Z,35
2017-10-06T13:07:38.259Z,25
2017-10-06T13:08:47.925Z,40
2017-10-06T13:09:56.950Z,30
2017-10-06T13:11:05.657Z,20
2017-10-06T13:12:15.003Z,25
2017-10-06T13:13:24.671Z,30
2017-10-06T13:14:33.381Z,20
2017-10-06T13:15:42.087Z,15
2017-10-06T13:16:51.111Z,5
2017-10-06T13:18:00.457Z,10
2017-10-06T13:19:09.161Z,5
2017-10-06T13:20:17.867Z,0
2017-10-06T13:21:27.216Z,0
2017-10-06T13:22:36.563Z,0
2017-10-06T13:23:45.919Z,0
2017-10-06T13:24:54.622Z,5
2017-10-06T13:26:03.651Z,10
2017-10-06T13:27:12.679Z,15
2017-10-06T13:28:21.387Z,15
2017-10-06T13:29:30.731Z,15
2017-10-06T13:30:39.768Z,20
2017-10-06T13:31:49.432Z,15
2017-10-06T13:32:58.786Z,15
2017-10-06T13:34:07.814Z,20
2017-10-06T13:35:16.526Z,30
2017-10-06T13:36:25.873Z,30
2017-10-06T13:37:34.902Z,35
2017-10-06T13:38:44.249Z,40
2017-10-06T13:39:53.597Z,45
2017-10-06T13:41:02.625Z,45
2017-10-06T13:42:11.649Z,45
2017-10-06T13:43:20.356Z,50
2017-10-06T13:44:30.031Z,55
2017-10-06T13:45:39.375Z,40
2017-10-06T13:46:48.085Z,45
2017-10-06T13:47:57.756Z,40
2017-10-06T13:49:07.105Z,55
2017-10-06T13:50:16.137Z,55
2017-10-06T13:51:25.160Z,40
2017-10-06T13:52:34.185Z,40
2017-10-06T13:53:43.218Z,45
2017-10-06T13:54:52.567Z,30
2017-10-06T13:56:01.598Z,55
2017-10-06T13:57:10.305Z,45
2017-10-06T13:58:19.338Z,40
2017-10-06T13:59:29.002Z,40
2017-10-06T14:00:38.028Z,30
2017-10-06T14:01:47.377Z,40
2017-10-06T14:02:57.042Z,20
2017-10-06T14:04:07.032Z,25
2017-10-06T14:05:16.381Z,35
2017-10-06T14:06:25.408Z,45
2017-10-06T14:07:34.433Z,35
2017-10-06T14:08:43.136Z,40
2017-10-06T14:09:52.489Z,50
2017-10-06T14:11:01.515Z,30
2017-10-06T14:12:10.540Z,20
2017-10-06T14:13:19.886Z,25
2017-10-06T14:14:28.909Z,25
2017-10-06T14:15:37.933Z,20
2017-10-06T14:16:47.287Z,20
2017-10-06T14:17:56.316Z,15
2017-10-06T14:19:05.667Z,20
2017-10-06T14:20:15.345Z,10
2017-10-06T14:21:24.698Z,15
2017-10-06T14:22:33.729Z,10
2017-10-06T14:23:42.436Z,10
2017-10-06T14:24:51.786Z,10
2017-10-06T14:26:01.133Z,10
2017-10-06T14:27:11.121Z,15
2017-10-06T14:28:20.467Z,25
2017-10-06T14:29:29.813Z,15
2017-10-06T14:30:38.839Z,25
2017-10-06T14:31:47.867Z,20
2017-10-06T14:32:56.580Z,30
2017-10-06T14:34:05.924Z,40
2017-10-06T14:35:14.629Z,30
2017-10-06T14:36:23.333Z,30
2017-10-06T14:37:32.357Z,30
2017-10-06T14:38:41.385Z,30
2017-10-06T14:39:51.054Z,20
2017-10-06T14:41:00.080Z,20
2017-10-06T14:42:09.431Z,20
2017-10-06T14:43:18.461Z,25
2017-10-06T14:44:27.809Z,25
2017-10-06T14:45:37.156Z,30
2017-10-06T14:46:46.505Z,35
2017-10-06T14:47:55.213Z,30
2017-10-06T14:49:04.576Z,15
2017-10-06T14:50:13.924Z,20
2017-10-06T14:51:23.267Z,20
2017-10-06T14:52:32.301Z,20
2017-10-06T14:53:41.325Z,20
2017-10-06T14:54:50.036Z,25
2017-10-06T14:55:59.387Z,20
2017-10-06T14:57:08.094Z,25
2017-10-06T14:58:17.464Z,20
2017-10-06T14:59:26.788Z,20
2017-10-06T15:00:36.136Z,20
2017-10-06T15:01:44.847Z,25
2017-10-06T15:02:54.514Z,25
2017-10-06T15:04:03.542Z,30
2017-10-06T15:05:12.595Z,25
2017-10-06T15:06:21.629Z,15
2017-10-06T15:07:30.658Z,25
2017-10-06T15:08:40.006Z,30
2017-10-06T15:09:49.031Z,25
2017-10-06T15:10:58.059Z,20
2017-10-06T15:12:07.412Z,25
2017-10-06T15:13:16.437Z,20
2017-10-06T15:14:25.145Z,25
2017-10-06T15:15:35.129Z,20
2017-10-06T15:16:44.158Z,15
2017-10-06T15:17:53.511Z,15
2017-10-06T15:19:02.538Z,15
2017-10-06T15:20:11.564Z,15
2017-10-06T15:21:21.245Z,15
2017-10-06T15:22:30.618Z,15
2017-10-06T15:23:39.655Z,10
2017-10-06T15:24:49.318Z,15
2017-10-06T15:25:58.349Z,10
2017-10-06T15:27:07.694Z,15
2017-10-06T15:28:17.362Z,15
2017-10-06T15:29:26.710Z,15
2017-10-06T15:30:36.376Z,15
2017-10-06T15:31:45.408Z,10
2017-10-06T15:32:54.754Z,15
2017-10-06T15:34:03.781Z,15
2017-10-06T15:35:12.810Z,20
2017-10-06T15:36:22.163Z,15
2017-10-06T15:37:31.191Z,15
2017-10-06T15:38:40.873Z,10
2017-10-06T15:39:49.585Z,10
2017-10-06T15:40:58.616Z,15
2017-10-06T15:42:07.641Z,10
2017-10-06T15:43:17.311Z,10
2017-10-06T15:44:26.338Z,15
2017-10-06T15:45:36.012Z,15
2017-10-06T15:46:45.044Z,10
2017-10-06T15:47:54.394Z,10
2017-10-06T15:49:03.097Z,10
2017-10-06T15:50:12.122Z,10
2017-10-06T15:51:20.830Z,10
2017-10-06T15:52:29.860Z,10
2017-10-06T15:53:39.209Z,10
2017-10-06T15:54:48.875Z,10
2017-10-06T15:55:58.224Z,10
2017-10-06T15:57:07.570Z,10
2017-10-06T15:58:17.560Z,10
2017-10-06T15:59:26.266Z,10
2017-10-06T16:00:35.298Z,10
2017-10-06T16:01:44.645Z,10
2017-10-06T16:02:53.992Z,5
2017-10-06T16:04:03.025Z,5
2017-10-06T16:05:12.371Z,5
2017-10-06T16:06:21.395Z,5
2017-10-06T16:07:30.744Z,5
2017-10-06T16:08:40.088Z,5
2017-10-06T16:09:49.431Z,5
2017-10-06T16:10:59.098Z,5
2017-10-06T16:12:07.800Z,5
2017-10-06T16:13:16.831Z,5
2017-10-06T16:14:25.864Z,5
2017-10-06T16:15:34.888Z,5
2017-10-06T16:16:44.236Z,5
2017-10-06T16:17:53.581Z,5
2017-10-06T16:19:02.286Z,5
2017-10-06T16:20:11.963Z,5
2017-10-06T16:21:21.633Z,5
2017-10-06T16:22:30.658Z,5
2017-10-06T16:23:40.007Z,5
2017-10-06T16:24:49.038Z,5
2017-10-06T16:25:58.384Z,5
2017-10-06T16:27:07.088Z,5
2017-10-06T16:28:16.116Z,0
2017-10-06T16:29:25.144Z,0
2017-10-06T16:30:34.495Z,0
2017-10-06T16:31:43.204Z,0
2017-10-06T16:32:53.199Z,0
2017-10-06T16:34:02.227Z,0
2017-10-06T16:35:11.894Z,0
2017-10-06T16:36:20.922Z,0
2017-10-06T16:37:30.598Z,0
2017-10-06T16:38:39.626Z,0
2017-10-06T16:39:48.982Z,0
2017-10-06T16:40:58.974Z,0
2017-10-06T16:42:08.321Z,0
2017-10-06T16:43:17.047Z,0
2017-10-06T16:44:26.400Z,0